sensor_id;sensor_type;location;lat;lon;timestamp;P1;durP1;ratioP1;P2;durP2;ratioP2
17614;SDS011;8926;49.720;6.576;2023-04-01T00:01:27;2.77;;;1.20;;
17614;SDS011;8926;49.720;6.576;2023-04-01T00:03:53;4.70;;;1.23;;
17614;SDS011;8926;49.720;6.576;2023-04-01T00:06:19;3.20;;;1.20;;
17614;SDS011;8926;49.720;6.576;2023-04-01T00:08:44;3.60;;;1.20;;
17614;SDS011;8926;49.720;6.576;2023-04-01T00:11:10;2.30;;;1.03;;
17614;SDS011;8926;49.720;6.576;2023-04-01T00:13:35;4.17;;;1.33;;
17614;SDS011;8926;49.720;6.576;2023-04-01T00:16:01;2.77;;;1.23;;
17614;SDS011;8926;49.720;6.576;2023-04-01T00:18:27;3.33;;;1.00;;
17614;SDS011;8926;49.720;6.576;2023-04-01T00:20:53;3.80;;;1.30;;
17614;SDS011;8926;49.720;6.576;2023-04-01T00:23:18;2.07;;;1.23;;
17614;SDS011;8926;49.720;6.576;2023-04-01T00:25:44;2.80;;;1.20;;
17614;SDS011;8926;49.720;6.576;2023-04-01T00:28:12;3.67;;;1.37;;
17614;SDS011;8926;49.720;6.576;2023-04-01T00:30:38;2.73;;;1.20;;
17614;SDS011;8926;49.720;6.576;2023-04-01T00:33:04;4.97;;;1.47;;
17614;SDS011;8926;49.720;6.576;2023-04-01T00:35:32;3.73;;;1.30;;
17614;SDS011;8926;49.720;6.576;2023-04-01T00:37:58;8.60;;;1.67;;
17614;SDS011;8926;49.720;6.576;2023-04-01T00:42:52;3.23;;;1.30;;
17614;SDS011;8926;49.720;6.576;2023-04-01T00:47:54;2.80;;;1.30;;
17614;SDS011;8926;49.720;6.576;2023-04-01T00:50:19;4.63;;;1.50;;
17614;SDS011;8926;49.720;6.576;2023-04-01T00:52:47;3.50;;;1.00;;
17614;SDS011;8926;49.720;6.576;2023-04-01T00:55:12;2.43;;;1.00;;
17614;SDS011;8926;49.720;6.576;2023-04-01T00:57:41;3.53;;;1.37;;
17614;SDS011;8926;49.720;6.576;2023-04-01T01:00:10;3.17;;;1.27;;
17614;SDS011;8926;49.720;6.576;2023-04-01T01:02:38;6.03;;;1.40;;
17614;SDS011;8926;49.720;6.576;2023-04-01T01:05:06;4.13;;;1.30;;
17614;SDS011;8926;49.720;6.576;2023-04-01T01:10:34;4.50;;;1.43;;
17614;SDS011;8926;49.720;6.576;2023-04-01T01:13:10;3.07;;;1.47;;
17614;SDS011;8926;49.720;6.576;2023-04-01T01:15:44;3.77;;;1.30;;
17614;SDS011;8926;49.720;6.576;2023-04-01T01:26:44;3.13;;;1.13;;
17614;SDS011;8926;49.720;6.576;2023-04-01T01:32:32;4.07;;;1.20;;
17614;SDS011;8926;49.720;6.576;2023-04-01T01:37:55;3.60;;;1.17;;
17614;SDS011;8926;49.720;6.576;2023-04-01T01:40:24;2.77;;;1.30;;
17614;SDS011;8926;49.720;6.576;2023-04-01T01:42:53;3.20;;;1.50;;
17614;SDS011;8926;49.720;6.576;2023-04-01T01:45:23;4.40;;;1.27;;
17614;SDS011;8926;49.720;6.576;2023-04-01T01:47:51;2.80;;;1.20;;
17614;SDS011;8926;49.720;6.576;2023-04-01T01:50:17;5.37;;;1.50;;
17614;SDS011;8926;49.720;6.576;2023-04-01T01:52:42;3.00;;;1.40;;
17614;SDS011;8926;49.720;6.576;2023-04-01T01:57:54;3.13;;;1.43;;
17614;SDS011;8926;49.720;6.576;2023-04-01T02:00:23;3.43;;;1.30;;
17614;SDS011;8926;49.720;6.576;2023-04-01T02:02:49;2.73;;;1.30;;
17614;SDS011;8926;49.720;6.576;2023-04-01T02:05:17;5.23;;;1.20;;
17614;SDS011;8926;49.720;6.576;2023-04-01T02:07:46;3.40;;;1.40;;
17614;SDS011;8926;49.720;6.576;2023-04-01T02:10:17;3.07;;;1.20;;
17614;SDS011;8926;49.720;6.576;2023-04-01T02:12:46;3.53;;;1.33;;
17614;SDS011;8926;49.720;6.576;2023-04-01T02:15:13;3.20;;;1.43;;
17614;SDS011;8926;49.720;6.576;2023-04-01T02:17:42;5.70;;;1.37;;
17614;SDS011;8926;49.720;6.576;2023-04-01T02:20:15;1.90;;;1.17;;
17614;SDS011;8926;49.720;6.576;2023-04-01T02:22:48;3.23;;;1.70;;
17614;SDS011;8926;49.720;6.576;2023-04-01T02:25:23;3.43;;;1.33;;
17614;SDS011;8926;49.720;6.576;2023-04-01T02:27:54;6.00;;;1.17;;
17614;SDS011;8926;49.720;6.576;2023-04-01T02:30:23;2.50;;;1.20;;
17614;SDS011;8926;49.720;6.576;2023-04-01T02:32:50;5.23;;;1.50;;
17614;SDS011;8926;49.720;6.576;2023-04-01T02:35:16;5.23;;;1.63;;
17614;SDS011;8926;49.720;6.576;2023-04-01T02:37:42;5.23;;;1.70;;
17614;SDS011;8926;49.720;6.576;2023-04-01T02:40:10;4.30;;;1.80;;
17614;SDS011;8926;49.720;6.576;2023-04-01T02:42:38;3.97;;;1.10;;
17614;SDS011;8926;49.720;6.576;2023-04-01T02:45:04;5.03;;;1.57;;
17614;SDS011;8926;49.720;6.576;2023-04-01T02:47:29;4.77;;;1.20;;
17614;SDS011;8926;49.720;6.576;2023-04-01T02:49:55;4.00;;;1.30;;
17614;SDS011;8926;49.720;6.576;2023-04-01T02:52:26;3.23;;;1.60;;
17614;SDS011;8926;49.720;6.576;2023-04-01T02:54:53;3.27;;;1.43;;
17614;SDS011;8926;49.720;6.576;2023-04-01T02:57:19;3.27;;;1.10;;
17614;SDS011;8926;49.720;6.576;2023-04-01T02:59:45;2.73;;;1.23;;
17614;SDS011;8926;49.720;6.576;2023-04-01T03:02:10;4.03;;;1.23;;
17614;SDS011;8926;49.720;6.576;2023-04-01T03:04:36;3.90;;;1.20;;
17614;SDS011;8926;49.720;6.576;2023-04-01T03:07:01;4.20;;;1.57;;
17614;SDS011;8926;49.720;6.576;2023-04-01T03:09:26;6.63;;;1.73;;
17614;SDS011;8926;49.720;6.576;2023-04-01T03:11:53;4.23;;;1.10;;
17614;SDS011;8926;49.720;6.576;2023-04-01T03:14:18;3.83;;;1.27;;
17614;SDS011;8926;49.720;6.576;2023-04-01T03:16:44;2.53;;;1.03;;
17614;SDS011;8926;49.720;6.576;2023-04-01T03:19:09;5.10;;;1.60;;
17614;SDS011;8926;49.720;6.576;2023-04-01T03:21:34;2.43;;;1.03;;
17614;SDS011;8926;49.720;6.576;2023-04-01T03:23:59;3.63;;;1.33;;
17614;SDS011;8926;49.720;6.576;2023-04-01T03:26:25;2.83;;;1.30;;
17614;SDS011;8926;49.720;6.576;2023-04-01T03:28:52;1.97;;;0.83;;
17614;SDS011;8926;49.720;6.576;2023-04-01T03:31:17;2.10;;;0.83;;
17614;SDS011;8926;49.720;6.576;2023-04-01T03:33:43;1.80;;;0.90;;
17614;SDS011;8926;49.720;6.576;2023-04-01T03:36:08;2.87;;;1.20;;
17614;SDS011;8926;49.720;6.576;2023-04-01T03:38:36;4.90;;;1.30;;
17614;SDS011;8926;49.720;6.576;2023-04-01T03:41:01;2.50;;;1.17;;
17614;SDS011;8926;49.720;6.576;2023-04-01T03:43:27;2.87;;;1.23;;
17614;SDS011;8926;49.720;6.576;2023-04-01T03:45:52;2.20;;;0.87;;
17614;SDS011;8926;49.720;6.576;2023-04-01T03:48:19;3.43;;;0.97;;
17614;SDS011;8926;49.720;6.576;2023-04-01T03:50:46;3.77;;;1.30;;
17614;SDS011;8926;49.720;6.576;2023-04-01T03:53:12;2.60;;;1.03;;
17614;SDS011;8926;49.720;6.576;2023-04-01T03:55:38;1.00;;;0.90;;
17614;SDS011;8926;49.720;6.576;2023-04-01T03:58:04;2.90;;;0.90;;
17614;SDS011;8926;49.720;6.576;2023-04-01T04:00:30;1.77;;;1.20;;
17614;SDS011;8926;49.720;6.576;2023-04-01T04:02:55;2.60;;;1.17;;
17614;SDS011;8926;49.720;6.576;2023-04-01T04:05:21;2.40;;;1.10;;
17614;SDS011;8926;49.720;6.576;2023-04-01T04:07:50;3.20;;;1.40;;
17614;SDS011;8926;49.720;6.576;2023-04-01T04:10:16;2.77;;;1.00;;
17614;SDS011;8926;49.720;6.576;2023-04-01T04:12:41;1.60;;;1.00;;
17614;SDS011;8926;49.720;6.576;2023-04-01T04:15:07;2.40;;;0.90;;
17614;SDS011;8926;49.720;6.576;2023-04-01T04:17:33;3.40;;;0.70;;
17614;SDS011;8926;49.720;6.576;2023-04-01T04:19:58;2.17;;;0.90;;
17614;SDS011;8926;49.720;6.576;2023-04-01T04:22:24;2.17;;;0.90;;
17614;SDS011;8926;49.720;6.576;2023-04-01T04:24:49;2.10;;;0.73;;
17614;SDS011;8926;49.720;6.576;2023-04-01T04:27:15;3.53;;;0.70;;
17614;SDS011;8926;49.720;6.576;2023-04-01T04:29:40;3.17;;;1.00;;
17614;SDS011;8926;49.720;6.576;2023-04-01T04:32:05;2.47;;;1.20;;
17614;SDS011;8926;49.720;6.576;2023-04-01T04:34:31;1.80;;;0.53;;
17614;SDS011;8926;49.720;6.576;2023-04-01T04:36:57;1.70;;;0.70;;
17614;SDS011;8926;49.720;6.576;2023-04-01T04:39:22;2.40;;;1.10;;
17614;SDS011;8926;49.720;6.576;2023-04-01T04:41:47;3.43;;;0.80;;
17614;SDS011;8926;49.720;6.576;2023-04-01T04:44:13;1.40;;;1.17;;
17614;SDS011;8926;49.720;6.576;2023-04-01T04:46:38;2.03;;;1.00;;
17614;SDS011;8926;49.720;6.576;2023-04-01T04:49:04;1.00;;;0.80;;
17614;SDS011;8926;49.720;6.576;2023-04-01T04:51:30;2.43;;;0.73;;
17614;SDS011;8926;49.720;6.576;2023-04-01T04:53:58;1.93;;;0.70;;
17614;SDS011;8926;49.720;6.576;2023-04-01T04:56:24;2.87;;;0.77;;
17614;SDS011;8926;49.720;6.576;2023-04-01T04:58:51;0.83;;;0.43;;
17614;SDS011;8926;49.720;6.576;2023-04-01T05:01:16;1.20;;;0.60;;
17614;SDS011;8926;49.720;6.576;2023-04-01T05:03:42;1.03;;;0.63;;
17614;SDS011;8926;49.720;6.576;2023-04-01T05:06:08;2.97;;;0.90;;
17614;SDS011;8926;49.720;6.576;2023-04-01T05:08:35;2.30;;;0.53;;
17614;SDS011;8926;49.720;6.576;2023-04-01T05:11:01;1.53;;;0.77;;
17614;SDS011;8926;49.720;6.576;2023-04-01T05:13:27;1.27;;;0.60;;
17614;SDS011;8926;49.720;6.576;2023-04-01T05:15:53;2.30;;;0.60;;
17614;SDS011;8926;49.720;6.576;2023-04-01T05:18:18;1.10;;;0.57;;
17614;SDS011;8926;49.720;6.576;2023-04-01T05:20:48;3.13;;;1.23;;
17614;SDS011;8926;49.720;6.576;2023-04-01T05:23:15;1.90;;;1.13;;
17614;SDS011;8926;49.720;6.576;2023-04-01T05:25:40;1.80;;;0.83;;
17614;SDS011;8926;49.720;6.576;2023-04-01T05:28:06;0.77;;;0.43;;
17614;SDS011;8926;49.720;6.576;2023-04-01T05:30:31;1.10;;;0.63;;
17614;SDS011;8926;49.720;6.576;2023-04-01T05:32:56;1.10;;;0.70;;
17614;SDS011;8926;49.720;6.576;2023-04-01T05:35:22;1.37;;;0.90;;
17614;SDS011;8926;49.720;6.576;2023-04-01T05:37:48;0.97;;;0.50;;
17614;SDS011;8926;49.720;6.576;2023-04-01T05:40:13;1.20;;;0.67;;
17614;SDS011;8926;49.720;6.576;2023-04-01T05:42:39;1.63;;;0.43;;
17614;SDS011;8926;49.720;6.576;2023-04-01T05:45:04;2.07;;;0.83;;
17614;SDS011;8926;49.720;6.576;2023-04-01T05:47:30;0.73;;;0.70;;
17614;SDS011;8926;49.720;6.576;2023-04-01T05:49:56;1.30;;;0.77;;
17614;SDS011;8926;49.720;6.576;2023-04-01T05:52:21;1.43;;;0.40;;
17614;SDS011;8926;49.720;6.576;2023-04-01T05:54:46;0.60;;;0.43;;
17614;SDS011;8926;49.720;6.576;2023-04-01T05:57:11;0.80;;;0.40;;
17614;SDS011;8926;49.720;6.576;2023-04-01T05:59:37;2.67;;;0.47;;
17614;SDS011;8926;49.720;6.576;2023-04-01T06:02:02;0.50;;;0.40;;
17614;SDS011;8926;49.720;6.576;2023-04-01T06:04:28;1.17;;;0.57;;
17614;SDS011;8926;49.720;6.576;2023-04-01T06:07:00;1.53;;;0.70;;
17614;SDS011;8926;49.720;6.576;2023-04-01T06:09:29;1.90;;;0.70;;
17614;SDS011;8926;49.720;6.576;2023-04-01T06:14:36;1.07;;;0.47;;
17614;SDS011;8926;49.720;6.576;2023-04-01T06:22:39;0.70;;;0.37;;
17614;SDS011;8926;49.720;6.576;2023-04-01T06:30:51;0.40;;;0.40;;
17614;SDS011;8926;49.720;6.576;2023-04-01T06:33:40;0.70;;;0.47;;
17614;SDS011;8926;49.720;6.576;2023-04-01T06:36:26;0.50;;;0.23;;
17614;SDS011;8926;49.720;6.576;2023-04-01T06:39:06;0.70;;;0.30;;
17614;SDS011;8926;49.720;6.576;2023-04-01T06:44:07;0.30;;;0.30;;
17614;SDS011;8926;49.720;6.576;2023-04-01T06:46:57;0.33;;;0.33;;
17614;SDS011;8926;49.720;6.576;2023-04-01T06:49:39;0.50;;;0.30;;
17614;SDS011;8926;49.720;6.576;2023-04-01T06:57:45;1.70;;;0.40;;
17614;SDS011;8926;49.720;6.576;2023-04-01T07:00:15;0.37;;;0.30;;
17614;SDS011;8926;49.720;6.576;2023-04-01T07:02:54;0.30;;;0.30;;
17614;SDS011;8926;49.720;6.576;2023-04-01T07:05:34;0.30;;;0.27;;
17614;SDS011;8926;49.720;6.576;2023-04-01T07:08:04;0.33;;;0.30;;
17614;SDS011;8926;49.720;6.576;2023-04-01T07:13:45;0.40;;;0.30;;
17614;SDS011;8926;49.720;6.576;2023-04-01T07:16:17;0.60;;;0.60;;
17614;SDS011;8926;49.720;6.576;2023-04-01T07:24:29;0.23;;;0.20;;
17614;SDS011;8926;49.720;6.576;2023-04-01T07:26:59;1.13;;;0.40;;
17614;SDS011;8926;49.720;6.576;2023-04-01T07:29:25;0.37;;;0.30;;
17614;SDS011;8926;49.720;6.576;2023-04-01T07:45:59;0.40;;;0.30;;
17614;SDS011;8926;49.720;6.576;2023-04-01T07:48:51;0.30;;;0.23;;
17614;SDS011;8926;49.720;6.576;2023-04-01T07:51:38;0.87;;;0.30;;
17614;SDS011;8926;49.720;6.576;2023-04-01T07:57:22;0.40;;;0.40;;
17614;SDS011;8926;49.720;6.576;2023-04-01T07:59:58;0.50;;;0.40;;
17614;SDS011;8926;49.720;6.576;2023-04-01T08:07:47;0.70;;;0.33;;
17614;SDS011;8926;49.720;6.576;2023-04-01T08:10:25;0.60;;;0.60;;
17614;SDS011;8926;49.720;6.576;2023-04-01T08:15:49;0.30;;;0.30;;
17614;SDS011;8926;49.720;6.576;2023-04-01T08:21:12;0.30;;;0.30;;
17614;SDS011;8926;49.720;6.576;2023-04-01T08:23:44;0.20;;;0.20;;
17614;SDS011;8926;49.720;6.576;2023-04-01T08:26:13;0.40;;;0.40;;
17614;SDS011;8926;49.720;6.576;2023-04-01T08:31:17;0.30;;;0.30;;
17614;SDS011;8926;49.720;6.576;2023-04-01T08:33:47;0.30;;;0.30;;
17614;SDS011;8926;49.720;6.576;2023-04-01T08:36:34;0.20;;;0.20;;
17614;SDS011;8926;49.720;6.576;2023-04-01T08:39:13;0.40;;;0.40;;
17614;SDS011;8926;49.720;6.576;2023-04-01T08:50:08;0.70;;;0.70;;
17614;SDS011;8926;49.720;6.576;2023-04-01T08:52:53;0.30;;;0.30;;
17614;SDS011;8926;49.720;6.576;2023-04-01T09:29:44;0.70;;;0.50;;
17614;SDS011;8926;49.720;6.576;2023-04-01T09:32:51;0.60;;;0.60;;
17614;SDS011;8926;49.720;6.576;2023-04-01T09:38:30;0.70;;;0.70;;
17614;SDS011;8926;49.720;6.576;2023-04-01T09:46:37;0.40;;;0.40;;
17614;SDS011;8926;49.720;6.576;2023-04-01T09:49:19;0.40;;;0.30;;
17614;SDS011;8926;49.720;6.576;2023-04-01T10:00:10;0.60;;;0.40;;
17614;SDS011;8926;49.720;6.576;2023-04-01T10:03:13;0.37;;;0.30;;
17614;SDS011;8926;49.720;6.576;2023-04-01T10:25:53;1.57;;;1.47;;
17614;SDS011;8926;49.720;6.576;2023-04-01T10:31:12;0.57;;;0.57;;
17614;SDS011;8926;49.720;6.576;2023-04-01T10:36:54;0.40;;;0.40;;
17614;SDS011;8926;49.720;6.576;2023-04-01T11:09:28;0.50;;;0.50;;
17614;SDS011;8926;49.720;6.576;2023-04-01T11:14:52;0.40;;;0.40;;
17614;SDS011;8926;49.720;6.576;2023-04-01T11:22:58;0.33;;;0.33;;
17614;SDS011;8926;49.720;6.576;2023-04-01T11:25:39;0.30;;;0.30;;
17614;SDS011;8926;49.720;6.576;2023-04-01T11:42:15;0.10;;;0.10;;
17614;SDS011;8926;49.720;6.576;2023-04-01T11:45:34;0.40;;;0.40;;
17614;SDS011;8926;49.720;6.576;2023-04-01T11:50:18;0.20;;;0.10;;
17614;SDS011;8926;49.720;6.576;2023-04-01T11:55:43;0.20;;;0.20;;
17614;SDS011;8926;49.720;6.576;2023-04-01T12:01:36;0.47;;;0.30;;
17614;SDS011;8926;49.720;6.576;2023-04-01T12:04:49;0.50;;;0.40;;
17614;SDS011;8926;49.720;6.576;2023-04-01T12:13:14;1.47;;;1.37;;
17614;SDS011;8926;49.720;6.576;2023-04-01T12:16:09;5.90;;;5.30;;
17614;SDS011;8926;49.720;6.576;2023-04-01T12:18:53;4.37;;;3.80;;
17614;SDS011;8926;49.720;6.576;2023-04-01T12:21:35;5.90;;;5.40;;
17614;SDS011;8926;49.720;6.576;2023-04-01T12:37:56;1.87;;;1.77;;
17614;SDS011;8926;49.720;6.576;2023-04-01T12:43:35;0.97;;;0.97;;
17614;SDS011;8926;49.720;6.576;2023-04-01T12:58:07;5.30;;;1.70;;
17614;SDS011;8926;49.720;6.576;2023-04-01T13:14:50;1.40;;;1.00;;
17614;SDS011;8926;49.720;6.576;2023-04-01T13:17:53;0.57;;;0.57;;
17614;SDS011;8926;49.720;6.576;2023-04-01T13:20:30;2.00;;;0.90;;
17614;SDS011;8926;49.720;6.576;2023-04-01T13:23:28;0.63;;;0.50;;
17614;SDS011;8926;49.720;6.576;2023-04-01T13:26:44;0.80;;;0.80;;
17614;SDS011;8926;49.720;6.576;2023-04-01T13:29:27;2.17;;;1.67;;
17614;SDS011;8926;49.720;6.576;2023-04-01T13:34:59;1.60;;;1.50;;
17614;SDS011;8926;49.720;6.576;2023-04-01T13:37:48;1.40;;;1.30;;
17614;SDS011;8926;49.720;6.576;2023-04-01T13:42:56;0.50;;;0.50;;
17614;SDS011;8926;49.720;6.576;2023-04-01T13:45:26;0.50;;;0.50;;
17614;SDS011;8926;49.720;6.576;2023-04-01T13:51:01;0.40;;;0.33;;
17614;SDS011;8926;49.720;6.576;2023-04-01T14:10:55;0.80;;;0.53;;
17614;SDS011;8926;49.720;6.576;2023-04-01T14:16:47;0.60;;;0.53;;
17614;SDS011;8926;49.720;6.576;2023-04-01T14:19:25;0.57;;;0.50;;
17614;SDS011;8926;49.720;6.576;2023-04-01T14:27:13;0.73;;;0.73;;
17614;SDS011;8926;49.720;6.576;2023-04-01T14:49:32;0.40;;;0.40;;
17614;SDS011;8926;49.720;6.576;2023-04-01T14:52:24;0.60;;;0.60;;
17614;SDS011;8926;49.720;6.576;2023-04-01T14:54:53;1.10;;;0.97;;
17614;SDS011;8926;49.720;6.576;2023-04-01T14:57:23;0.60;;;0.60;;
17614;SDS011;8926;49.720;6.576;2023-04-01T14:59:53;0.77;;;0.77;;
17614;SDS011;8926;49.720;6.576;2023-04-01T15:08:03;0.33;;;0.33;;
17614;SDS011;8926;49.720;6.576;2023-04-01T15:16:17;0.40;;;0.40;;
17614;SDS011;8926;49.720;6.576;2023-04-01T15:21:41;0.23;;;0.23;;
17614;SDS011;8926;49.720;6.576;2023-04-01T15:26:53;0.83;;;0.50;;
17614;SDS011;8926;49.720;6.576;2023-04-01T15:32:16;0.40;;;0.40;;
17614;SDS011;8926;49.720;6.576;2023-04-01T15:38:25;0.77;;;0.77;;
17614;SDS011;8926;49.720;6.576;2023-04-01T15:40:53;0.60;;;0.60;;
17614;SDS011;8926;49.720;6.576;2023-04-01T15:43:45;0.50;;;0.50;;
17614;SDS011;8926;49.720;6.576;2023-04-01T15:55:03;1.77;;;1.67;;
17614;SDS011;8926;49.720;6.576;2023-04-01T16:05:54;2.07;;;1.70;;
17614;SDS011;8926;49.720;6.576;2023-04-01T16:20:24;4.23;;;3.17;;
17614;SDS011;8926;49.720;6.576;2023-04-01T16:23:02;2.60;;;1.70;;
17614;SDS011;8926;49.720;6.576;2023-04-01T16:25:39;1.30;;;1.00;;
17614;SDS011;8926;49.720;6.576;2023-04-01T16:28:15;0.83;;;0.80;;
17614;SDS011;8926;49.720;6.576;2023-04-01T16:30:57;2.40;;;2.20;;
17614;SDS011;8926;49.720;6.576;2023-04-01T16:35:59;3.63;;;3.33;;
17614;SDS011;8926;49.720;6.576;2023-04-01T16:41:24;2.47;;;2.37;;
17614;SDS011;8926;49.720;6.576;2023-04-01T16:43:56;1.33;;;1.23;;
17614;SDS011;8926;49.720;6.576;2023-04-01T16:46:43;1.60;;;1.33;;
17614;SDS011;8926;49.720;6.576;2023-04-01T16:51:52;1.23;;;1.13;;
17614;SDS011;8926;49.720;6.576;2023-04-01T16:57:37;0.80;;;0.80;;
17614;SDS011;8926;49.720;6.576;2023-04-01T17:03:04;1.20;;;1.10;;
17614;SDS011;8926;49.720;6.576;2023-04-01T17:05:52;1.07;;;1.00;;
17614;SDS011;8926;49.720;6.576;2023-04-01T17:11:19;1.20;;;1.10;;
17614;SDS011;8926;49.720;6.576;2023-04-01T17:16:54;1.10;;;1.10;;
17614;SDS011;8926;49.720;6.576;2023-04-01T17:30:12;2.20;;;2.00;;
17614;SDS011;8926;49.720;6.576;2023-04-01T17:33:04;1.07;;;1.07;;
17614;SDS011;8926;49.720;6.576;2023-04-01T17:35:35;0.90;;;0.90;;
17614;SDS011;8926;49.720;6.576;2023-04-01T17:41:25;1.27;;;1.17;;
17614;SDS011;8926;49.720;6.576;2023-04-01T17:47:16;1.27;;;1.23;;
17614;SDS011;8926;49.720;6.576;2023-04-01T17:52:44;0.80;;;0.80;;
17614;SDS011;8926;49.720;6.576;2023-04-01T18:00:57;0.63;;;0.63;;
17614;SDS011;8926;49.720;6.576;2023-04-01T18:12:30;0.93;;;0.40;;
17614;SDS011;8926;49.720;6.576;2023-04-01T18:15:03;0.77;;;0.40;;
17614;SDS011;8926;49.720;6.576;2023-04-01T18:17:41;0.50;;;0.50;;
17614;SDS011;8926;49.720;6.576;2023-04-01T18:20:24;0.50;;;0.50;;
17614;SDS011;8926;49.720;6.576;2023-04-01T18:23:03;0.57;;;0.57;;
17614;SDS011;8926;49.720;6.576;2023-04-01T18:25:40;0.50;;;0.50;;
17614;SDS011;8926;49.720;6.576;2023-04-01T18:28:21;0.30;;;0.30;;
17614;SDS011;8926;49.720;6.576;2023-04-01T18:36:44;1.90;;;1.80;;
17614;SDS011;8926;49.720;6.576;2023-04-01T18:39:32;1.60;;;1.50;;
17614;SDS011;8926;49.720;6.576;2023-04-01T18:47:41;0.80;;;0.80;;
17614;SDS011;8926;49.720;6.576;2023-04-01T18:52:56;1.73;;;1.60;;
17614;SDS011;8926;49.720;6.576;2023-04-01T18:55:54;1.37;;;1.30;;
17614;SDS011;8926;49.720;6.576;2023-04-01T18:58:36;4.10;;;3.80;;
17614;SDS011;8926;49.720;6.576;2023-04-01T19:03:43;3.53;;;3.23;;
17614;SDS011;8926;49.720;6.576;2023-04-01T19:06:33;1.70;;;1.60;;
17614;SDS011;8926;49.720;6.576;2023-04-01T19:17:32;1.00;;;1.00;;
17614;SDS011;8926;49.720;6.576;2023-04-01T19:25:35;1.10;;;1.10;;
17614;SDS011;8926;49.720;6.576;2023-04-01T19:37:11;1.50;;;1.10;;
17614;SDS011;8926;49.720;6.576;2023-04-01T19:40:25;0.80;;;0.80;;
17614;SDS011;8926;49.720;6.576;2023-04-01T19:43:44;1.00;;;1.00;;
17614;SDS011;8926;49.720;6.576;2023-04-01T19:45:51;0.80;;;0.80;;
17614;SDS011;8926;49.720;6.576;2023-04-01T19:51:25;1.00;;;1.00;;
17614;SDS011;8926;49.720;6.576;2023-04-01T19:56:30;0.70;;;0.70;;
17614;SDS011;8926;49.720;6.576;2023-04-01T19:59:22;0.60;;;0.60;;
17614;SDS011;8926;49.720;6.576;2023-04-01T20:04:36;0.87;;;0.87;;
17614;SDS011;8926;49.720;6.576;2023-04-01T20:07:16;0.80;;;0.80;;
17614;SDS011;8926;49.720;6.576;2023-04-01T20:10:01;0.77;;;0.60;;
17614;SDS011;8926;49.720;6.576;2023-04-01T20:12:43;0.70;;;0.70;;
17614;SDS011;8926;49.720;6.576;2023-04-01T20:17:59;0.70;;;0.70;;
17614;SDS011;8926;49.720;6.576;2023-04-01T20:20:28;0.40;;;0.40;;
17614;SDS011;8926;49.720;6.576;2023-04-01T20:23:04;0.60;;;0.60;;
17614;SDS011;8926;49.720;6.576;2023-04-01T20:25:43;1.27;;;0.87;;
17614;SDS011;8926;49.720;6.576;2023-04-01T20:28:20;0.70;;;0.70;;
17614;SDS011;8926;49.720;6.576;2023-04-01T20:36:30;0.87;;;0.87;;
17614;SDS011;8926;49.720;6.576;2023-04-01T20:45:10;1.07;;;0.97;;
17614;SDS011;8926;49.720;6.576;2023-04-01T21:01:54;3.00;;;2.70;;
17614;SDS011;8926;49.720;6.576;2023-04-01T21:05:19;2.20;;;2.10;;
17614;SDS011;8926;49.720;6.576;2023-04-01T21:10:52;5.57;;;4.87;;
17614;SDS011;8926;49.720;6.576;2023-04-01T21:16:58;4.07;;;3.67;;
17614;SDS011;8926;49.720;6.576;2023-04-01T21:27:51;2.37;;;2.17;;
17614;SDS011;8926;49.720;6.576;2023-04-01T21:35:44;1.60;;;1.50;;
17614;SDS011;8926;49.720;6.576;2023-04-01T21:41:32;1.10;;;1.10;;
17614;SDS011;8926;49.720;6.576;2023-04-01T21:47:17;1.00;;;1.00;;
17614;SDS011;8926;49.720;6.576;2023-04-01T21:53:07;0.90;;;0.90;;
17614;SDS011;8926;49.720;6.576;2023-04-01T22:12:42;0.60;;;0.60;;
17614;SDS011;8926;49.720;6.576;2023-04-01T22:18:21;0.40;;;0.40;;
17614;SDS011;8926;49.720;6.576;2023-04-01T22:23:25;0.70;;;0.70;;
17614;SDS011;8926;49.720;6.576;2023-04-01T22:28:30;0.70;;;0.70;;
17614;SDS011;8926;49.720;6.576;2023-04-01T22:31:02;0.90;;;0.90;;
17614;SDS011;8926;49.720;6.576;2023-04-01T22:34:06;0.93;;;0.83;;
17614;SDS011;8926;49.720;6.576;2023-04-01T22:42:19;0.80;;;0.80;;
17614;SDS011;8926;49.720;6.576;2023-04-01T22:48:20;0.80;;;0.80;;
17614;SDS011;8926;49.720;6.576;2023-04-01T22:56:48;1.03;;;1.03;;
17614;SDS011;8926;49.720;6.576;2023-04-01T22:59:26;1.67;;;1.20;;
17614;SDS011;8926;49.720;6.576;2023-04-01T23:02:39;1.20;;;1.10;;
17614;SDS011;8926;49.720;6.576;2023-04-01T23:05:20;1.10;;;1.00;;
17614;SDS011;8926;49.720;6.576;2023-04-01T23:07:59;1.33;;;1.27;;
17614;SDS011;8926;49.720;6.576;2023-04-01T23:10:50;2.13;;;1.50;;
17614;SDS011;8926;49.720;6.576;2023-04-01T23:13:24;1.20;;;1.20;;
17614;SDS011;8926;49.720;6.576;2023-04-01T23:15:54;1.40;;;1.30;;
17614;SDS011;8926;49.720;6.576;2023-04-01T23:23:33;1.47;;;1.37;;
17614;SDS011;8926;49.720;6.576;2023-04-01T23:26:07;1.70;;;1.60;;
17614;SDS011;8926;49.720;6.576;2023-04-01T23:28:45;1.50;;;1.40;;
17614;SDS011;8926;49.720;6.576;2023-04-01T23:34:01;1.00;;;1.00;;
17614;SDS011;8926;49.720;6.576;2023-04-01T23:36:29;1.30;;;1.30;;
17614;SDS011;8926;49.720;6.576;2023-04-01T23:38:56;1.40;;;1.30;;
17614;SDS011;8926;49.720;6.576;2023-04-01T23:41:30;1.40;;;1.30;;
17614;SDS011;8926;49.720;6.576;2023-04-01T23:44:08;1.10;;;1.10;;
17614;SDS011;8926;49.720;6.576;2023-04-01T23:46:37;1.20;;;1.20;;
17614;SDS011;8926;49.720;6.576;2023-04-01T23:49:04;1.50;;;1.40;;
17614;SDS011;8926;49.720;6.576;2023-04-01T23:51:36;1.63;;;1.53;;
17614;SDS011;8926;49.720;6.576;2023-04-01T23:54:11;1.33;;;1.30;;
17614;SDS011;8926;49.720;6.576;2023-04-01T23:56:46;1.10;;;1.10;;
17614;SDS011;8926;49.720;6.576;2023-04-01T23:59:16;1.13;;;1.13;;
